Time;durP1;ratioP1;P1;durP2;ratioP2;P2;SDS_P1;SDS_P2;PMS_P1;PMS_P2;Temp;Humidity;BMP_temperature;BMP_pressure;BME280_temperature;BME280_humidity;BME280_pressure;Samples;Min_cycle;Max_cycle;Signal;HPM_P1;HPM_P2
2023/09/14 00:00:50;;;;;;;3.70;3.00;;;18.00;99.90;;;;;;6275411;28;20044;-79
2023/09/14 00:03:52;;;;;;;5.95;3.55;;;18.00;99.90;;;;;;6276685;28;20049;-80
2023/09/14 00:06:55;;;;;;;4.38;3.25;;;17.90;99.90;;;;;;6275836;28;20045;-78
2023/09/14 00:09:57;;;;;;;5.03;4.05;;;17.90;99.90;;;;;;6291568;28;20048;-80
2023/09/14 00:12:58;;;;;;;6.18;4.28;;;17.80;99.90;;;;;;6284060;28;20060;-78
2023/09/14 00:16:00;;;;;;;5.38;4.03;;;17.80;99.90;;;;;;6276360;28;20049;-79
2023/09/14 00:19:02;;;;;;;4.15;3.22;;;17.80;99.90;;;;;;6275013;28;20056;-80
2023/09/14 00:22:05;;;;;;;5.57;4.47;;;17.80;99.90;;;;;;6274854;28;20421;-80
2023/09/14 00:25:08;;;;;;;3.97;3.55;;;17.90;99.90;;;;;;6274588;28;20516;-78
2023/09/14 00:28:09;;;;;;;4.65;3.28;;;18.00;99.90;;;;;;6274164;28;20052;-78
2023/09/14 00:31:11;;;;;;;4.95;4.45;;;18.00;99.90;;;;;;6284920;28;20044;-79
2023/09/14 00:34:13;;;;;;;4.40;4.00;;;18.10;99.90;;;;;;6274662;28;20055;-78
2023/09/14 00:37:16;;;;;;;4.68;3.75;;;18.10;99.90;;;;;;6273711;28;20056;-79
2023/09/14 00:40:18;;;;;;;3.85;3.55;;;18.10;99.90;;;;;;6273156;28;20036;-77
2023/09/14 00:43:20;;;;;;;5.43;2.90;;;18.20;99.90;;;;;;6277192;28;20049;-78
2023/09/14 00:46:22;;;;;;;3.70;3.00;;;18.20;99.90;;;;;;6271188;28;20055;-77
2023/09/14 00:49:24;;;;;;;3.53;3.22;;;18.30;99.90;;;;;;6282804;28;20037;-78
2023/09/14 00:52:27;;;;;;;4.05;3.38;;;18.20;99.90;;;;;;6276007;28;20049;-77
2023/09/14 00:55:29;;;;;;;3.22;2.70;;;18.20;99.90;;;;;;6271678;28;20049;-78
2023/09/14 00:58:31;;;;;;;6.03;3.17;;;18.20;99.90;;;;;;6275426;28;20044;-79
2023/09/14 01:01:32;;;;;;;3.40;3.03;;;18.30;99.90;;;;;;6274704;28;20418;-78
2023/09/14 01:04:34;;;;;;;3.72;3.40;;;18.40;99.90;;;;;;6270540;28;20124;-77
2023/09/14 01:07:37;;;;;;;3.58;2.78;;;18.40;99.90;;;;;;6271285;28;20049;-77
2023/09/14 01:10:39;;;;;;;3.13;2.65;;;18.40;99.90;;;;;;6270700;28;20074;-77
2023/09/14 01:13:49;;;;;;;3.28;2.92;;;18.30;99.90;;;;;;6270319;28;20048;-76
2023/09/14 01:16:56;;;;;;;3.60;2.97;;;18.30;99.90;;;;;;6270671;28;20045;-77
2023/09/14 01:20:07;;;;;;;3.63;2.95;;;18.20;99.90;;;;;;6270572;28;20088;-77
2023/09/14 01:23:27;;;;;;;2.92;2.42;;;18.30;99.90;;;;;;6277803;28;20187;-77
2023/09/14 01:26:32;;;;;;;4.10;2.90;;;18.30;99.90;;;;;;6270477;28;20513;-79
2023/09/14 01:29:33;;;;;;;3.13;2.83;;;18.30;99.90;;;;;;6278860;28;20040;-79
2023/09/14 01:32:35;;;;;;;4.03;3.60;;;18.30;99.90;;;;;;6270343;28;20048;-78
2023/09/14 01:35:47;;;;;;;3.67;3.33;;;18.30;99.90;;;;;;6284105;28;20052;-78
2023/09/14 01:38:51;;;;;;;3.17;2.78;;;18.30;99.90;;;;;;6272170;28;20049;-77
2023/09/14 01:41:56;;;;;;;4.55;2.97;;;18.30;99.90;;;;;;6276696;28;20052;-78
2023/09/14 01:44:58;;;;;;;3.80;2.92;;;18.20;99.90;;;;;;6286644;28;20055;-77
2023/09/14 01:48:00;;;;;;;3.35;2.65;;;18.30;99.90;;;;;;6295016;28;20060;-79
2023/09/14 01:51:02;;;;;;;3.20;2.88;;;18.30;99.90;;;;;;6279075;28;20052;-77
2023/09/14 01:54:04;;;;;;;2.58;2.30;;;18.40;99.90;;;;;;6269725;28;20052;-77
2023/09/14 01:57:07;;;;;;;5.10;2.63;;;18.30;99.90;;;;;;6269704;28;20045;-78
2023/09/14 02:00:10;;;;;;;2.92;2.63;;;18.30;99.90;;;;;;6268856;28;20045;-79
2023/09/14 02:03:11;;;;;;;3.42;2.55;;;18.30;99.90;;;;;;6269811;28;20048;-77
2023/09/14 02:06:13;;;;;;;1.90;1.80;;;18.30;99.90;;;;;;6285930;28;20051;-78
2023/09/14 02:09:15;;;;;;;3.13;2.88;;;18.30;99.90;;;;;;6277938;28;20047;-78
2023/09/14 02:12:18;;;;;;;2.75;1.80;;;18.20;99.90;;;;;;6269280;28;20045;-77
2023/09/14 02:15:19;;;;;;;5.15;2.08;;;18.20;99.90;;;;;;6269994;28;20049;-77
2023/09/14 02:18:21;;;;;;;4.07;2.10;;;18.20;99.90;;;;;;6268921;28;20052;-78
2023/09/14 02:21:23;;;;;;;3.90;2.10;;;18.20;99.90;;;;;;6269009;28;20056;-78
2023/09/14 02:24:24;;;;;;;2.13;1.52;;;18.20;99.90;;;;;;6269649;28;20070;-78
2023/09/14 02:27:27;;;;;;;4.63;1.40;;;18.20;99.90;;;;;;6271982;28;20049;-78
2023/09/14 02:30:29;;;;;;;2.85;1.90;;;18.20;99.90;;;;;;6269464;28;20037;-78
2023/09/14 02:33:31;;;;;;;2.70;2.33;;;18.20;99.90;;;;;;6268561;28;20037;-79
2023/09/14 02:36:33;;;;;;;6.68;2.13;;;18.20;99.90;;;;;;6268795;28;20068;-79
2023/09/14 02:39:35;;;;;;;3.03;2.13;;;18.30;99.90;;;;;;6272123;28;20064;-78
2023/09/14 02:42:38;;;;;;;1.67;1.55;;;18.30;99.90;;;;;;6268941;28;20611;-77
2023/09/14 02:45:40;;;;;;;3.28;1.65;;;18.30;99.90;;;;;;6269337;28;20048;-78
2023/09/14 02:48:42;;;;;;;4.18;1.83;;;18.30;99.90;;;;;;6269415;28;20542;-78
2023/09/14 02:51:43;;;;;;;1.45;1.30;;;18.20;99.90;;;;;;6270171;28;20041;-79
2023/09/14 02:54:45;;;;;;;4.85;1.60;;;18.20;99.90;;;;;;6268956;28;20056;-78
2023/09/14 02:57:48;;;;;;;3.17;2.22;;;18.10;99.90;;;;;;6269363;28;20057;-78
2023/09/14 03:00:50;;;;;;;2.13;1.83;;;18.00;99.90;;;;;;6269554;28;20041;-79
2023/09/14 03:03:51;;;;;;;2.95;1.63;;;18.00;99.90;;;;;;6269368;28;20052;-79
2023/09/14 03:06:53;;;;;;;2.30;1.83;;;17.90;99.90;;;;;;6269344;28;20037;-78
2023/09/14 03:09:56;;;;;;;2.75;1.95;;;17.70;99.90;;;;;;6268663;28;20072;-79
2023/09/14 03:12:59;;;;;;;2.67;2.00;;;17.70;99.90;;;;;;6268738;28;20045;-78
2023/09/14 03:16:01;;;;;;;2.40;1.70;;;17.60;99.90;;;;;;6271603;28;20056;-78
2023/09/14 03:19:03;;;;;;;2.22;1.77;;;17.60;99.90;;;;;;6274055;28;20045;-77
2023/09/14 03:22:06;;;;;;;4.93;2.00;;;17.50;99.90;;;;;;6272947;28;20048;-77
2023/09/14 03:25:08;;;;;;;4.53;3.40;;;17.50;99.90;;;;;;6289110;28;20040;-78
2023/09/14 03:28:11;;;;;;;3.17;1.75;;;17.40;99.90;;;;;;6289723;28;20063;-79
2023/09/14 03:31:13;;;;;;;2.17;1.98;;;17.40;99.90;;;;;;6298421;28;20041;-79
2023/09/14 03:34:15;;;;;;;4.32;2.08;;;17.40;99.90;;;;;;6297921;28;20517;-77
2023/09/14 03:37:16;;;;;;;3.30;2.08;;;17.30;99.90;;;;;;6289344;28;20048;-79
2023/09/14 03:40:18;;;;;;;2.92;1.67;;;17.20;99.90;;;;;;6280467;28;20047;-78
2023/09/14 03:43:21;;;;;;;3.45;2.13;;;17.20;99.90;;;;;;6273011;28;20049;-78
2023/09/14 03:46:23;;;;;;;2.35;2.10;;;17.10;99.90;;;;;;6273018;28;20045;-78
2023/09/14 03:49:25;;;;;;;2.65;2.00;;;17.00;99.90;;;;;;6272990;28;20041;-78
2023/09/14 03:52:26;;;;;;;2.88;2.45;;;16.90;99.90;;;;;;6272615;28;20049;-78
2023/09/14 03:55:29;;;;;;;3.95;2.45;;;16.80;99.90;;;;;;6273082;28;20449;-78
2023/09/14 03:58:32;;;;;;;4.25;2.40;;;16.70;99.90;;;;;;6272659;28;20051;-79
2023/09/14 04:01:34;;;;;;;3.22;2.40;;;16.60;99.90;;;;;;6272057;28;20040;-78
2023/09/14 04:04:35;;;;;;;3.22;2.30;;;16.50;99.90;;;;;;6272466;28;20041;-77
2023/09/14 04:07:37;;;;;;;3.75;2.92;;;16.50;99.90;;;;;;6273010;28;20519;-79
2023/09/14 04:10:39;;;;;;;6.15;2.90;;;16.40;99.90;;;;;;6272261;28;20041;-79
2023/09/14 04:13:42;;;;;;;2.28;2.05;;;16.40;99.90;;;;;;6275757;28;20067;-79
2023/09/14 04:16:44;;;;;;;2.40;2.10;;;16.30;99.90;;;;;;6284363;28;20044;-78
2023/09/14 04:19:46;;;;;;;3.55;1.85;;;16.20;99.90;;;;;;6293038;28;20041;-78
2023/09/14 04:22:50;;;;;;;1.98;1.77;;;16.20;99.90;;;;;;6275354;28;20493;-79
2023/09/14 04:25:51;;;;;;;3.55;1.80;;;16.20;99.90;;;;;;6272091;28;20459;-78
2023/09/14 04:28:54;;;;;;;2.53;1.52;;;16.10;99.90;;;;;;6271415;28;20502;-77
2023/09/14 04:31:57;;;;;;;1.88;1.40;;;16.10;99.90;;;;;;6272762;28;20045;-77
2023/09/14 04:34:59;;;;;;;5.25;1.90;;;16.20;99.90;;;;;;6272813;28;20052;-77
2023/09/14 04:38:01;;;;;;;3.92;2.00;;;16.10;99.90;;;;;;6271576;28;20045;-77
2023/09/14 04:41:04;;;;;;;3.60;1.65;;;16.10;99.90;;;;;;6274389;28;20037;-77
2023/09/14 04:44:07;;;;;;;3.30;1.73;;;16.10;99.90;;;;;;6295438;28;20517;-77
2023/09/14 04:47:09;;;;;;;1.77;1.50;;;16.00;99.90;;;;;;6297855;28;20049;-77
2023/09/14 04:50:11;;;;;;;3.63;2.20;;;16.00;99.90;;;;;;6296423;28;20059;-78
2023/09/14 04:53:13;;;;;;;3.35;1.90;;;16.00;99.90;;;;;;6296228;28;20056;-78
2023/09/14 04:56:14;;;;;;;2.15;1.90;;;15.90;99.90;;;;;;6262706;28;20498;-78
2023/09/14 04:59:17;;;;;;;2.38;1.60;;;15.90;99.90;;;;;;6271972;28;20049;-78
2023/09/14 05:02:19;;;;;;;2.70;1.90;;;15.90;99.90;;;;;;6271165;28;20140;-77
2023/09/14 05:05:20;;;;;;;2.25;1.50;;;15.90;99.90;;;;;;6271155;28;20044;-77
2023/09/14 05:08:23;;;;;;;3.72;1.63;;;16.00;99.90;;;;;;6271492;28;20048;-78
2023/09/14 05:11:25;;;;;;;4.85;1.60;;;16.00;99.90;;;;;;6287525;28;20393;-77
2023/09/14 05:14:28;;;;;;;6.93;2.78;;;16.00;99.90;;;;;;6270872;28;20049;-77
2023/09/14 05:17:29;;;;;;;2.90;2.53;;;16.00;99.90;;;;;;6270790;28;20536;-77
2023/09/14 05:20:31;;;;;;;3.65;2.28;;;16.00;99.90;;;;;;6271175;28;20048;-77
2023/09/14 05:23:33;;;;;;;3.55;2.15;;;15.90;99.90;;;;;;6271242;28;20052;-77
2023/09/14 05:26:34;;;;;;;2.67;2.17;;;15.90;99.90;;;;;;6270871;28;20056;-77
2023/09/14 05:29:37;;;;;;;2.53;2.33;;;15.80;99.90;;;;;;6270977;28;20060;-76
2023/09/14 05:32:41;;;;;;;2.13;1.92;;;15.80;99.90;;;;;;6270323;28;20731;-76
2023/09/14 05:35:44;;;;;;;3.95;1.88;;;15.80;99.90;;;;;;6270861;28;20409;-76
2023/09/14 05:38:46;;;;;;;3.70;2.78;;;15.80;99.90;;;;;;6270221;28;20048;-79
2023/09/14 05:41:50;;;;;;;5.55;2.90;;;15.80;99.90;;;;;;6271366;28;20041;-78
2023/09/14 05:44:53;;;;;;;4.40;2.65;;;16.00;99.90;;;;;;6270403;28;20536;-78
2023/09/14 05:47:55;;;;;;;2.45;1.95;;;16.00;99.90;;;;;;6270551;28;20548;-78
2023/09/14 05:50:56;;;;;;;3.22;2.90;;;16.00;99.90;;;;;;6270739;28;20049;-79
2023/09/14 05:53:58;;;;;;;2.42;2.22;;;16.10;99.90;;;;;;6270263;28;20068;-78
2023/09/14 05:57:00;;;;;;;4.22;2.80;;;16.10;99.90;;;;;;6270320;28;20394;-77
2023/09/14 06:00:12;;;;;;;3.28;2.28;;;16.20;99.90;;;;;;6293346;28;20075;-79
2023/09/14 06:03:14;;;;;;;6.47;3.35;;;16.40;99.90;;;;;;6295791;28;20075;-78
2023/09/14 06:06:16;;;;;;;4.88;2.55;;;16.40;99.90;;;;;;6287161;28;20044;-78
2023/09/14 06:09:18;;;;;;;3.38;2.47;;;16.50;99.90;;;;;;6269747;28;20056;-79
2023/09/14 06:12:20;;;;;;;3.47;2.72;;;16.50;99.90;;;;;;6269519;28;20065;-78
2023/09/14 06:15:23;;;;;;;3.63;3.15;;;16.50;99.90;;;;;;6263585;28;20052;-78
2023/09/14 06:18:25;;;;;;;2.63;1.90;;;16.60;99.90;;;;;;6260787;28;20048;-78
2023/09/14 06:21:26;;;;;;;6.20;2.90;;;16.70;99.90;;;;;;6274709;28;20033;-78
2023/09/14 06:24:28;;;;;;;6.15;3.22;;;16.90;99.90;;;;;;6269044;28;20037;-78
2023/09/14 06:27:30;;;;;;;4.57;1.75;;;17.00;99.90;;;;;;6279993;28;20055;-78
2023/09/14 06:30:33;;;;;;;5.68;2.28;;;17.10;99.90;;;;;;6271124;28;20050;-79
2023/09/14 06:33:35;;;;;;;3.97;2.75;;;17.30;99.90;;;;;;6271177;28;20045;-78
2023/09/14 06:36:36;;;;;;;2.00;1.58;;;17.40;99.90;;;;;;6271532;28;20041;-78
2023/09/14 06:39:38;;;;;;;5.30;2.33;;;17.30;99.90;;;;;;6280947;28;20053;-78
2023/09/14 06:42:41;;;;;;;7.07;3.67;;;17.30;99.90;;;;;;6267343;28;20053;-79
2023/09/14 06:45:44;;;;;;;2.25;1.38;;;17.30;99.90;;;;;;6270607;28;20090;-78
2023/09/14 06:48:46;;;;;;;3.00;2.13;;;17.20;99.90;;;;;;6275557;28;20068;-78
2023/09/14 06:51:48;;;;;;;5.97;3.30;;;17.20;99.90;;;;;;6272669;28;20433;-78
2023/09/14 06:54:50;;;;;;;1.85;1.30;;;17.40;99.90;;;;;;6279098;28;20045;-78
2023/09/14 06:57:51;;;;;;;7.03;2.88;;;17.60;99.90;;;;;;6278307;28;20482;-78
2023/09/14 07:00:56;;;;;;;4.07;2.60;;;17.80;99.90;;;;;;6277232;28;20041;-78
2023/09/14 07:03:57;;;;;;;5.72;1.92;;;18.00;99.90;;;;;;6281346;28;20479;-78
2023/09/14 07:06:59;;;;;;;7.53;2.00;;;18.30;99.90;;;;;;6280821;28;20391;-78
2023/09/14 07:10:01;;;;;;;4.47;2.00;;;18.50;99.90;;;;;;6276844;28;20513;-78
2023/09/14 07:13:02;;;;;;;4.63;1.77;;;18.70;99.90;;;;;;6275968;28;20041;-78
2023/09/14 07:16:06;;;;;;;2.53;1.70;;;18.70;99.40;;;;;;6274433;28;20053;-79
2023/09/14 07:19:07;;;;;;;4.18;1.90;;;18.90;99.10;;;;;;6298187;28;20048;-78
2023/09/14 07:22:09;;;;;;;2.97;2.15;;;19.00;98.60;;;;;;6299355;28;20449;-77
2023/09/14 07:25:11;;;;;;;3.22;2.13;;;19.10;98.20;;;;;;6300878;28;20516;-77
2023/09/14 07:28:12;;;;;;;4.22;1.70;;;19.10;98.20;;;;;;6299758;28;20067;-79
2023/09/14 07:31:15;;;;;;;3.17;1.90;;;19.30;97.70;;;;;;6297771;28;20417;-78
2023/09/14 07:34:17;;;;;;;5.13;1.70;;;19.50;97.50;;;;;;6301992;28;20054;-79
2023/09/14 07:37:19;;;;;;;1.92;1.70;;;19.70;97.10;;;;;;6299987;28;20560;-79
2023/09/14 07:40:20;;;;;;;3.85;2.03;;;20.00;96.70;;;;;;6283793;28;20041;-78
2023/09/14 07:43:22;;;;;;;2.05;1.73;;;20.10;96.10;;;;;;6275350;28;20417;-79
2023/09/14 07:46:25;;;;;;;5.68;1.60;;;20.30;95.80;;;;;;6276922;28;20045;-79
2023/09/14 07:49:27;;;;;;;2.88;1.20;;;20.50;95.20;;;;;;6291442;28;20051;-79
2023/09/14 07:52:29;;;;;;;3.25;1.73;;;20.60;94.60;;;;;;6301945;28;20049;-79
2023/09/14 07:55:31;;;;;;;4.28;1.52;;;20.80;94.30;;;;;;6302500;28;20045;-79
2023/09/14 07:58:32;;;;;;;7.10;1.67;;;21.00;94.40;;;;;;6291536;28;20049;-79
2023/09/14 08:01:36;;;;;;;3.75;1.85;;;21.70;93.90;;;;;;6291166;28;20049;-79
2023/09/14 08:04:38;;;;;;;3.25;2.00;;;22.10;92.90;;;;;;6300482;28;20040;-77
2023/09/14 08:07:40;;;;;;;1.88;1.40;;;22.50;92.70;;;;;;6299402;28;20052;-77
2023/09/14 08:10:41;;;;;;;4.32;2.13;;;22.90;91.90;;;;;;6290836;28;20147;-74
2023/09/14 08:13:43;;;;;;;1.40;0.90;;;23.30;91.40;;;;;;6298238;28;20048;-78
2023/09/14 08:16:46;;;;;;;2.17;1.30;;;23.70;90.80;;;;;;6291822;28;20049;-77
2023/09/14 08:19:48;;;;;;;2.05;1.15;;;24.00;90.30;;;;;;6298649;28;20607;-75
2023/09/14 08:22:49;;;;;;;4.15;1.40;;;24.40;89.50;;;;;;6294098;28;20045;-76
2023/09/14 08:25:52;;;;;;;5.85;2.10;;;24.80;87.70;;;;;;6292713;28;20047;-76
2023/09/14 08:28:53;;;;;;;2.45;1.42;;;25.20;85.60;;;;;;6297225;28;20041;-75
2023/09/14 08:31:56;;;;;;;3.00;1.50;;;25.40;83.10;;;;;;6275938;28;20045;-76
2023/09/14 08:34:59;;;;;;;3.28;1.40;;;25.50;81.20;;;;;;6275135;28;20055;-76
2023/09/14 08:38:02;;;;;;;3.92;2.00;;;25.70;80.60;;;;;;6277020;28;20055;-76
2023/09/14 08:41:12;;;;;;;3.10;1.52;;;26.10;78.80;;;;;;6297557;28;20178;-77
2023/09/14 08:44:15;;;;;;;2.72;1.23;;;26.50;77.00;;;;;;6295226;28;20036;-76
2023/09/14 08:47:19;;;;;;;6.07;2.03;;;26.60;74.90;;;;;;6290820;28;20052;-76
2023/09/14 08:50:24;;;;;;;4.18;1.52;;;26.40;74.20;;;;;;6269667;28;20049;-78
2023/09/14 08:53:26;;;;;;;2.05;1.13;;;26.50;73.20;;;;;;6268986;28;20045;-75
2023/09/14 08:56:29;;;;;;;4.20;1.08;;;26.60;72.10;;;;;;6270894;28;20063;-76
2023/09/14 08:59:31;;;;;;;3.22;2.90;;;26.60;71.20;;;;;;6271786;28;20106;-75
2023/09/14 09:02:36;;;;;;;3.25;1.10;;;26.30;71.50;;;;;;6270444;28;20045;-77
2023/09/14 09:05:37;;;;;;;5.25;1.40;;;26.60;71.00;;;;;;6270758;28;20049;-76
2023/09/14 09:08:39;;;;;;;1.45;1.30;;;27.10;69.90;;;;;;6271221;28;20048;-76
2023/09/14 09:11:41;;;;;;;3.33;1.80;;;27.30;69.30;;;;;;6271303;28;20049;-76
2023/09/14 09:14:45;;;;;;;2.20;1.30;;;27.60;68.60;;;;;;6270756;28;20048;-75
2023/09/14 09:17:48;;;;;;;5.68;1.88;;;27.70;67.50;;;;;;6271081;28;20135;-77
2023/09/14 09:20:50;;;;;;;2.08;1.13;;;27.80;66.70;;;;;;6271060;28;20037;-77
2023/09/14 09:23:52;;;;;;;1.48;1.10;;;27.60;66.80;;;;;;6272998;28;20051;-76
2023/09/14 09:26:55;;;;;;;4.70;1.42;;;27.80;66.30;;;;;;6277061;28;20045;-75
2023/09/14 09:30:00;;;;;;;3.28;2.08;;;28.20;65.80;;;;;;6270226;28;20058;-76
2023/09/14 09:33:04;;;;;;;6.95;1.88;;;28.60;64.80;;;;;;6270312;28;20045;-75
2023/09/14 09:36:15;;;;;;;2.20;1.92;;;28.50;63.70;;;;;;6270701;28;20069;-76
2023/09/14 09:39:17;;;;;;;2.88;1.25;;;28.60;63.90;;;;;;6270949;28;20053;-76
2023/09/14 09:42:20;;;;;;;2.80;2.35;;;28.70;63.30;;;;;;6269204;28;20052;-76
2023/09/14 09:45:24;;;;;;;3.35;1.70;;;28.30;62.60;;;;;;6270123;28;20102;-77
2023/09/14 09:48:28;;;;;;;2.65;1.27;;;28.10;63.00;;;;;;6270248;28;20391;-76
2023/09/14 09:51:32;;;;;;;2.20;1.98;;;28.00;63.10;;;;;;6270226;28;20052;-76
2023/09/14 09:54:35;;;;;;;4.60;1.80;;;28.10;63.20;;;;;;6278938;28;20059;-76
2023/09/14 09:57:37;;;;;;;2.13;1.05;;;28.10;62.90;;;;;;6278373;28;20052;-76
2023/09/14 10:00:39;;;;;;;3.60;1.45;;;28.40;62.60;;;;;;6269230;28;20049;-76
2023/09/14 10:03:42;;;;;;;3.20;1.45;;;28.70;62.40;;;;;;6270143;28;20149;-75
2023/09/14 10:06:50;;;;;;;4.80;1.25;;;29.10;62.00;;;;;;6270314;28;20060;-77
2023/09/14 10:09:53;;;;;;;3.22;1.70;;;29.30;61.10;;;;;;6270526;28;20049;-77
2023/09/14 10:12:55;;;;;;;1.75;1.60;;;29.50;61.20;;;;;;6274117;28;20048;-77
2023/09/14 10:15:57;;;;;;;5.40;1.38;;;29.80;60.90;;;;;;6284205;28;20053;-77
2023/09/14 10:19:03;;;;;;;2.03;1.35;;;30.10;60.10;;;;;;6271983;28;20053;-76
2023/09/14 10:22:05;;;;;;;2.03;1.15;;;30.10;59.20;;;;;;6269894;28;20049;-78
2023/09/14 10:25:09;;;;;;;1.63;1.20;;;30.20;59.10;;;;;;6269219;28;20143;-77
2023/09/14 10:28:13;;;;;;;4.63;1.30;;;30.10;58.20;;;;;;6273529;28;20048;-77
2023/09/14 10:31:15;;;;;;;2.03;1.25;;;30.10;58.30;;;;;;6294785;28;20051;-78
2023/09/14 10:34:18;;;;;;;1.77;1.30;;;30.30;58.30;;;;;;6293227;28;20048;-77
2023/09/14 10:37:21;;;;;;;1.83;1.08;;;30.70;57.50;;;;;;6293308;28;20508;-77
2023/09/14 10:40:23;;;;;;;3.35;1.92;;;30.80;57.00;;;;;;6270608;28;20052;-77
2023/09/14 10:43:25;;;;;;;2.25;1.20;;;30.50;56.70;;;;;;6293675;28;20048;-77
2023/09/14 10:46:30;;;;;;;2.28;1.58;;;30.50;56.80;;;;;;6294192;28;20056;-77
2023/09/14 10:49:50;;;;;;;2.90;1.65;;;30.50;56.50;;;;;;6286296;28;20053;-77
2023/09/14 10:52:53;;;;;;;2.58;1.63;;;30.40;55.70;;;;;;6263257;28;20519;-77
2023/09/14 10:55:56;;;;;;;3.95;1.50;;;29.90;56.30;;;;;;6269129;28;20056;-77
2023/09/14 10:58:59;;;;;;;2.65;1.88;;;29.60;56.50;;;;;;6269150;28;20056;-77
2023/09/14 11:02:01;;;;;;;3.78;1.20;;;29.50;56.80;;;;;;6268778;28;20047;-77
2023/09/14 11:05:14;;;;;;;1.60;1.17;;;29.90;56.60;;;;;;6269046;28;20509;-76
2023/09/14 11:08:17;;;;;;;3.22;1.30;;;30.20;55.90;;;;;;6269093;28;20047;-77
2023/09/14 11:11:38;;;;;;;2.08;1.52;;;30.40;55.50;;;;;;6269128;28;20275;-76
2023/09/14 11:14:40;;;;;;;2.10;1.00;;;30.90;54.70;;;;;;6275286;28;20037;-78
2023/09/14 11:17:42;;;;;;;1.98;1.27;;;31.30;54.30;;;;;;6278102;28;20048;-77
2023/09/14 11:20:46;;;;;;;1.58;1.25;;;31.60;53.40;;;;;;6277810;28;20536;-75
2023/09/14 11:23:48;;;;;;;2.13;1.25;;;31.70;53.70;;;;;;6273686;28;20052;-76
2023/09/14 11:26:51;;;;;;;2.00;1.17;;;31.90;52.60;;;;;;6287538;28;20040;-77
2023/09/14 11:29:53;;;;;;;3.03;1.38;;;32.00;52.10;;;;;;6269511;28;20049;-78
2023/09/14 11:32:56;;;;;;;3.47;1.70;;;32.00;51.90;;;;;;6278266;28;20037;-77
2023/09/14 11:36:01;;;;;;;3.03;1.33;;;32.10;51.90;;;;;;6283645;28;20485;-76
2023/09/14 11:39:09;;;;;;;1.70;0.95;;;32.20;51.50;;;;;;6275820;28;20048;-76
2023/09/14 11:43:00;;;;;;;1.52;1.42;;;32.40;50.90;;;;;;6281284;28;20048;-77
2023/09/14 11:46:03;;;;;;;2.03;1.48;;;32.20;50.70;;;;;;6273152;28;20370;-76
2023/09/14 11:49:05;;;;;;;2.72;1.30;;;32.30;51.00;;;;;;6285155;28;20042;-77
2023/09/14 11:52:10;;;;;;;4.53;1.50;;;32.30;50.50;;;;;;6288854;28;20409;-77
2023/09/14 11:55:15;;;;;;;1.67;1.15;;;32.20;50.20;;;;;;6293580;28;20098;-78
2023/09/14 11:58:18;;;;;;;1.58;1.33;;;32.10;50.40;;;;;;6294625;28;20068;-76
2023/09/14 12:01:20;;;;;;;1.88;1.65;;;32.20;50.50;;;;;;6297662;28;20044;-77
2023/09/14 12:04:25;;;;;;;1.60;1.10;;;32.60;50.10;;;;;;6289133;28;20048;-77
2023/09/14 12:07:29;;;;;;;1.55;0.90;;;32.50;49.60;;;;;;6296644;28;20519;-77
2023/09/14 12:10:31;;;;;;;1.92;1.20;;;32.40;49.90;;;;;;6297523;28;20456;-77
2023/09/14 12:13:32;;;;;;;1.80;1.33;;;32.70;49.80;;;;;;6288774;28;20385;-77
2023/09/14 12:16:38;;;;;;;3.92;1.23;;;32.90;49.20;;;;;;6282139;28;20453;-78
2023/09/14 12:19:45;;;;;;;3.08;1.30;;;32.90;48.80;;;;;;6283086;28;20130;-77
2023/09/14 12:22:48;;;;;;;6.30;1.52;;;32.80;48.80;;;;;;6271750;28;20056;-77
2023/09/14 12:25:50;;;;;;;4.07;1.15;;;32.70;49.00;;;;;;6288939;28;20044;-76
2023/09/14 12:28:54;;;;;;;2.47;1.65;;;32.90;48.90;;;;;;6282468;28;20045;-76
2023/09/14 12:31:57;;;;;;;2.85;1.25;;;32.40;48.90;;;;;;6296920;28;20048;-76
2023/09/14 12:34:59;;;;;;;1.85;1.23;;;32.70;48.90;;;;;;6286362;28;20438;-77
2023/09/14 12:38:04;;;;;;;2.13;1.10;;;33.00;48.20;;;;;;6283141;28;20144;-76
2023/09/14 12:41:06;;;;;;;2.70;1.45;;;33.10;48.20;;;;;;6288519;28;20471;-77
2023/09/14 12:44:08;;;;;;;2.72;1.13;;;33.30;48.30;;;;;;6292567;28;20060;-76
2023/09/14 12:47:11;;;;;;;2.22;1.50;;;33.50;47.60;;;;;;6285018;28;20679;-75
2023/09/14 12:50:16;;;;;;;3.65;1.90;;;33.60;47.60;;;;;;6283040;28;20571;-76
2023/09/14 12:53:19;;;;;;;2.65;1.38;;;33.90;47.30;;;;;;6293169;28;20036;-76
2023/09/14 12:56:23;;;;;;;1.75;1.23;;;34.20;46.80;;;;;;6284669;28;20040;-77
2023/09/14 12:59:26;;;;;;;2.75;1.42;;;34.20;46.10;;;;;;6282207;28;20051;-77
2023/09/14 13:02:28;;;;;;;1.38;1.27;;;33.90;46.30;;;;;;6294720;28;20370;-77
2023/09/14 13:05:30;;;;;;;1.52;1.10;;;33.50;46.30;;;;;;6296803;28;20052;-77
2023/09/14 13:08:44;;;;;;;4.47;1.55;;;33.40;46.30;;;;;;6297778;28;20449;-77
2023/09/14 13:11:53;;;;;;;1.35;1.10;;;33.10;46.50;;;;;;6282475;28;20055;-78
2023/09/14 13:14:55;;;;;;;4.00;1.35;;;32.60;47.60;;;;;;6296380;28;20170;-76
2023/09/14 13:17:59;;;;;;;1.70;1.20;;;32.60;47.20;;;;;;6291576;28;20052;-78
2023/09/14 13:21:06;;;;;;;1.67;1.30;;;32.50;47.40;;;;;;6288718;28;20053;-77
2023/09/14 13:24:09;;;;;;;2.58;1.33;;;32.70;47.30;;;;;;6297043;28;20055;-77
2023/09/14 13:27:11;;;;;;;2.65;1.25;;;33.10;46.90;;;;;;6290183;28;20052;-78
2023/09/14 13:30:13;;;;;;;3.97;1.10;;;33.40;46.40;;;;;;6285640;28;20136;-78
2023/09/14 13:33:16;;;;;;;4.93;2.38;;;33.50;46.10;;;;;;6292040;28;20045;-78
2023/09/14 13:36:18;;;;;;;1.25;1.05;;;33.50;45.90;;;;;;6291383;28;20067;-77
2023/09/14 13:39:21;;;;;;;1.60;1.10;;;33.40;45.40;;;;;;6299559;28;20052;-78
2023/09/14 13:42:23;;;;;;;3.28;1.27;;;33.40;45.80;;;;;;6298507;28;20045;-78
2023/09/14 13:45:25;;;;;;;2.25;1.38;;;33.40;45.30;;;;;;6296962;28;20048;-77
2023/09/14 13:48:27;;;;;;;1.38;1.20;;;33.20;45.80;;;;;;6283414;28;20416;-77
2023/09/14 13:51:29;;;;;;;2.72;1.30;;;33.60;45.50;;;;;;6289800;28;20071;-78
2023/09/14 13:54:32;;;;;;;4.35;1.20;;;33.90;44.90;;;;;;6293870;28;20067;-77
2023/09/14 13:57:35;;;;;;;1.92;1.05;;;33.90;45.00;;;;;;6289636;28;20059;-77
2023/09/14 14:00:37;;;;;;;1.13;1.02;;;34.20;44.60;;;;;;6295999;28;20046;-79
2023/09/14 14:03:38;;;;;;;1.40;0.73;;;34.40;44.20;;;;;;6290289;28;20512;-76
2023/09/14 14:06:40;;;;;;;1.08;0.77;;;34.50;44.00;;;;;;6288945;28;20049;-76
2023/09/14 14:09:43;;;;;;;1.38;0.95;;;34.60;43.90;;;;;;6295383;28;20040;-77
2023/09/14 14:12:45;;;;;;;3.58;1.48;;;34.50;43.80;;;;;;6272060;28;20040;-78
2023/09/14 14:15:47;;;;;;;1.38;1.00;;;34.50;43.80;;;;;;6285547;28;20040;-77
2023/09/14 14:18:50;;;;;;;1.98;1.23;;;34.60;43.60;;;;;;6289730;28;20044;-78
2023/09/14 14:21:52;;;;;;;1.13;0.70;;;34.50;43.30;;;;;;6283209;28;20473;-78
2023/09/14 14:24:55;;;;;;;1.25;0.77;;;34.40;44.00;;;;;;6295850;28;20037;-77
2023/09/14 14:27:56;;;;;;;1.63;1.15;;;34.60;43.20;;;;;;6289831;28;20048;-78
2023/09/14 14:30:58;;;;;;;1.63;1.45;;;34.80;43.00;;;;;;6296174;28;20053;-76
2023/09/14 14:34:00;;;;;;;1.80;1.10;;;34.80;42.70;;;;;;6289734;28;20602;-77
2023/09/14 14:37:01;;;;;;;1.25;0.70;;;34.60;42.80;;;;;;6291104;28;20048;-76
2023/09/14 14:40:06;;;;;;;1.55;1.10;;;34.50;43.40;;;;;;6292723;28;20045;-77
2023/09/14 14:43:09;;;;;;;2.33;1.10;;;34.20;42.70;;;;;;6282963;28;20492;-76
2023/09/14 14:46:10;;;;;;;1.98;1.33;;;34.20;42.70;;;;;;6295504;28;20088;-78
2023/09/14 14:49:12;;;;;;;4.03;1.65;;;34.20;43.10;;;;;;6286145;28;20059;-77
2023/09/14 14:52:14;;;;;;;2.33;0.73;;;33.60;43.00;;;;;;6275179;28;20048;-76
2023/09/14 14:55:17;;;;;;;2.00;0.98;;;33.00;43.10;;;;;;6278013;28;20047;-78
2023/09/14 14:58:19;;;;;;;1.30;1.00;;;32.20;43.90;;;;;;6287548;28;20043;-77
2023/09/14 15:01:21;;;;;;;4.05;1.05;;;31.50;44.60;;;;;;6295067;28;20057;-78
2023/09/14 15:04:22;;;;;;;2.63;1.00;;;31.10;45.00;;;;;;6291931;28;20040;-78
2023/09/14 15:07:24;;;;;;;1.35;0.82;;;30.70;45.50;;;;;;6291016;28;20524;-78
2023/09/14 15:10:27;;;;;;;2.10;0.77;;;30.20;45.90;;;;;;6296809;28;20102;-78
2023/09/14 15:13:29;;;;;;;4.50;1.30;;;29.70;46.70;;;;;;6295973;28;20043;-78
2023/09/14 15:16:31;;;;;;;2.78;0.95;;;29.30;47.20;;;;;;6298074;28;20053;-77
2023/09/14 15:19:33;;;;;;;1.45;0.90;;;29.00;47.60;;;;;;6298098;28;20072;-77
2023/09/14 15:22:35;;;;;;;2.08;1.13;;;28.80;48.10;;;;;;6289316;28;20072;-77
2023/09/14 15:25:38;;;;;;;2.53;0.90;;;28.40;48.30;;;;;;6292716;28;20465;-77
2023/09/14 15:28:42;;;;;;;2.28;1.27;;;28.10;48.80;;;;;;6289324;28;20048;-76
2023/09/14 15:31:44;;;;;;;2.92;1.17;;;27.70;49.50;;;;;;6302175;28;20554;-78
2023/09/14 15:34:45;;;;;;;2.78;1.10;;;27.50;50.00;;;;;;6302043;28;20385;-78
2023/09/14 15:37:47;;;;;;;1.15;0.77;;;27.10;50.30;;;;;;6301384;28;20071;-78
2023/09/14 15:40:55;;;;;;;1.02;0.68;;;26.80;51.20;;;;;;6298872;28;20053;-78
2023/09/14 15:43:57;;;;;;;2.13;0.98;;;26.50;51.60;;;;;;6285792;28;20055;-77
2023/09/14 15:46:59;;;;;;;3.75;0.88;;;26.40;51.80;;;;;;6292289;28;20446;-77
2023/09/14 15:50:01;;;;;;;1.63;1.00;;;26.10;52.30;;;;;;6299852;28;20088;-78
2023/09/14 15:53:02;;;;;;;1.45;0.65;;;25.90;52.60;;;;;;6281048;28;20052;-78